Irenes Rainbow — A8WG4 — position and weather

sailwx.info

Track history (hours):
 
Tides and Currents Weather Stations Pressure Air Temp Water Temp Dewpoint Dewpoint Depression Visibility Wind Speed Wind Dir Waves Ship Positions

Irenes Rainbow

Last reported at 2018-Jun-16 22:02 UTC. Time now 2018-Jun-24 11:17 UTC.
Position N 05°14' W 000°16'.

Length 222 m; draft 9 m.

Type: Ship (hazmat cat A). MMSI: 636014741.

Date/timePositionNaut miles runAvg speedWind from/ knotsBaromVisibWave heightAir tempDewpointWater temp
2018-Jun-16 22:02N 05°14' W 000°16'1 8.8
2018-Jun-16 21:54N 05°14' W 000°15'4 8.8
2018-Jun-16 21:29N 05°16' W 000°12'4 8.8
2018-Jun-16 21:00N 05°19' W 000°09'4 8.7
2018-Jun-16 20:30N 05°22' W 000°06'4 8.8
2018-Jun-16 20:00N 05°25' W 000°03'4 8.9
2018-Jun-16 19:30N 05°28' E 000°01'4 8.6
2018-Jun-16 19:00N 05°32' E 000°03'4 8.2
2018-Jun-16 18:29N 05°36' E 000°05'4 8.0
2018-Jun-16 18:00N 05°38' E 000°01'1 1.6
2018-Jun-16 17:28N 05°38' E 000°01'0 0.0
2018-Jun-16 16:58N 05°38' E 000°01'0 0.0
2018-Jun-16 16:28N 05°38' E 000°01'0 0.0
2018-Jun-16 15:58N 05°38' E 000°01'0 0.0
2018-Jun-16 15:28N 05°38' E 000°01'0 0.0
2018-Jun-16 14:58N 05°38' E 000°01'0 0.0
2018-Jun-16 14:28N 05°38' E 000°01'0 0.0
2018-Jun-16 13:58N 05°38' E 000°01'0 0.0
2018-Jun-16 13:28N 05°38' E 000°01'0 0.0
2018-Jun-16 12:58N 05°38' E 000°01'0 0.0
2018-Jun-16 12:28N 05°38' E 000°01'0 0.0
2018-Jun-16 11:58N 05°38' E 000°01'0 0.0
2018-Jun-16 11:28N 05°38' E 000°01'0 0.0
2018-Jun-16 10:58N 05°38' E 000°01'0 0.0
2018-Jun-16 10:28N 05°38' E 000°01'0 0.0
2018-Jun-16 09:58N 05°38' E 000°01'0 0.0
2018-Jun-16 09:28N 05°38' E 000°01'0 0.0
2018-Jun-16 08:58N 05°38' E 000°01'0 0.0
2018-Jun-16 08:28N 05°38' E 000°01'0 0.0
2018-Jun-16 07:58N 05°38' E 000°01'0 0.0
2018-Jun-16 07:28N 05°38' E 000°01'0 0.0
2018-Jun-16 06:58N 05°38' E 000°01'0 0.0
2018-Jun-16 06:28N 05°38' E 000°01'0 0.0
2018-Jun-16 05:58N 05°38' E 000°01'0 0.0
2018-Jun-16 05:28N 05°38' E 000°01'0 0.0
2018-Jun-16 04:58N 05°38' E 000°01'0 0.0
2018-Jun-16 04:28N 05°38' E 000°01'0 0.0
2018-Jun-16 03:58N 05°38' E 000°01'0 0.0
2018-Jun-16 03:28N 05°38' E 000°01'0 0.0
2018-Jun-16 02:58N 05°38' E 000°01'0 0.0
2018-Jun-16 02:28N 05°38' E 000°01'0 0.0
2018-Jun-16 01:58N 05°38' E 000°01'0 0.0
2018-Jun-16 01:28N 05°38' E 000°01'0 0.0
2018-Jun-16 00:58N 05°38' E 000°01'0 0.0
2018-Jun-16 00:28N 05°38' E 000°01'0 0.0
2018-Jun-15 23:58N 05°38' E 000°01'0 0.0
2018-Jun-15 23:28N 05°38' E 000°01'0 0.0
2018-Jun-15 22:58N 05°38' E 000°01'0 0.0
2018-Jun-15 22:28N 05°38' E 000°01'0 0.0
2018-Jun-15 22:01N 05°38' E 000°01'0 0.0
2018-Jun-15 16:36N 05°38' E 000°01'0 0.0
2018-Jun-15 16:30N 05°38' E 000°01'0 0.0
2018-Jun-15 16:00N 05°38' E 000°01'0 0.0
2018-Jun-15 15:30N 05°38' E 000°01'0 0.0
2018-Jun-15 15:00N 05°38' E 000°01'0 0.0
2018-Jun-15 14:30N 05°38' E 000°01'0 0.0
2018-Jun-15 14:00N 05°38' E 000°01'0 0.0
2018-Jun-15 13:30N 05°38' E 000°01'0 0.0
2018-Jun-15 13:00N 05°38' E 000°01'0 0.0
2018-Jun-15 12:30N 05°38' E 000°01'0 0.0
2018-Jun-15 12:00N 05°38' E 000°01'0 0.0
2018-Jun-15 11:30N 05°38' E 000°01'0 0.0
2018-Jun-15 11:00N 05°38' E 000°01'0 0.0
2018-Jun-15 10:30N 05°38' E 000°01'0 0.0
2018-Jun-15 10:00N 05°38' E 000°01'0 0.0
2018-Jun-15 09:30N 05°38' E 000°01'0 0.0
2018-Jun-15 09:00N 05°38' E 000°01'0 0.0
2018-Jun-15 08:30N 05°38' E 000°01'0 0.0
2018-Jun-15 08:00N 05°38' E 000°01'0 0.0
2018-Jun-15 07:30N 05°38' E 000°01'0 0.0
2018-Jun-15 07:00N 05°38' E 000°01'0 0.0
2018-Jun-15 06:30N 05°38' E 000°01'0 0.0
2018-Jun-15 06:00N 05°38' E 000°01'0 0.0
2018-Jun-15 05:30N 05°38' E 000°01'0 0.0
2018-Jun-15 05:00N 05°38' E 000°01'0 0.0
2018-Jun-15 04:30N 05°38' E 000°01'0 0.0
2018-Jun-15 04:00N 05°38' E 000°01'0 0.4
2018-Jun-15 03:30N 05°38' E 000°01'2 3.2
2018-Jun-15 02:59N 05°38' E 000°02'2 5.3
2018-Jun-15 02:30N 05°36' E 000°04'4 7.9
2018-Jun-15 02:00N 05°32' E 000°03'0 0.6
2018-Jun-15 01:28N 05°32' E 000°03'0 0.0
2018-Jun-15 00:58N 05°32' E 000°03'0 0.0
2018-Jun-15 00:28N 05°32' E 000°03'0 0.1
2018-Jun-14 23:58N 05°32' E 000°03'0 0.0
2018-Jun-14 23:28N 05°32' E 000°03'0 0.0
2018-Jun-14 22:58N 05°32' E 000°03'0 0.0
2018-Jun-14 22:28N 05°32' E 000°03'0 0.0
2018-Jun-14 21:58N 05°32' E 000°03'0 0.0
2018-Jun-14 21:28N 05°32' E 000°03'0 0.0
2018-Jun-14 20:58N 05°32' E 000°03'0 0.0
2018-Jun-14 20:31N 05°32' E 000°03'0 0.0
2018-Jun-14 20:01N 05°32' E 000°03'0 0.0
2018-Jun-14 19:31N 05°32' E 000°03'0 0.0
2018-Jun-14 19:00N 05°32' E 000°03'0 0.0
2018-Jun-14 18:30N 05°32' E 000°03'0 0.0
2018-Jun-14 18:00N 05°32' E 000°03'0 0.0
2018-Jun-14 17:30N 05°32' E 000°03'0 0.0
2018-Jun-14 17:00N 05°32' E 000°03'0 0.0
2018-Jun-14 16:30N 05°32' E 000°03'0 0.0
2018-Jun-14 16:00N 05°32' E 000°03'0 0.0
2018-Jun-14 15:30N 05°32' E 000°03'0 0.0
2018-Jun-14 15:00N 05°32' E 000°03'0 0.0
2018-Jun-14 14:30N 05°32' E 000°03'0 0.0
2018-Jun-14 14:00N 05°32' E 000°03'0 0.0
2018-Jun-14 13:30N 05°32' E 000°03'0 0.0
2018-Jun-14 13:00N 05°32' E 000°03'0 0.0
2018-Jun-14 12:30N 05°32' E 000°03'0 0.0
2018-Jun-14 12:00N 05°32' E 000°03'0 0.0
2018-Jun-14 11:30N 05°32' E 000°03'0 0.0
2018-Jun-14 11:00N 05°32' E 000°03'0 0.0
2018-Jun-14 10:30N 05°32' E 000°03'0 0.0
2018-Jun-14 10:00N 05°32' E 000°03'0 0.0
2018-Jun-14 09:30N 05°32' E 000°03'0 0.0
2018-Jun-14 09:00N 05°32' E 000°03'0 0.0
2018-Jun-14 08:30N 05°32' E 000°03'0 0.0
2018-Jun-14 08:00N 05°32' E 000°03'0 0.0
2018-Jun-14 07:30N 05°32' E 000°03'0 0.0
2018-Jun-14 07:00N 05°32' E 000°03'0 0.0
2018-Jun-14 06:30N 05°32' E 000°03'0 0.0
2018-Jun-14 06:00N 05°32' E 000°03'0 0.0
2018-Jun-14 05:30N 05°32' E 000°03'0 0.1
2018-Jun-14 05:00N 05°32' E 000°03'0 0.1
2018-Jun-14 04:30N 05°32' E 000°03'0 0.0
2018-Jun-14 04:00N 05°32' E 000°03'0 0.0
2018-Jun-14 03:30N 05°32' E 000°03'0 0.0
2018-Jun-14 02:57N 05°32' E 000°03'0 0.0
2018-Jun-14 02:30N 05°32' E 000°03'0 0.0
2018-Jun-14 02:00N 05°32' E 000°03'0 0.0
2018-Jun-14 01:30N 05°32' E 000°03'0 0.0
2018-Jun-14 01:00N 05°32' E 000°03'0 0.0
2018-Jun-14 00:30N 05°32' E 000°03'0 0.0
2018-Jun-14 00:00N 05°32' E 000°03'0 0.0
2018-Jun-13 23:30N 05°32' E 000°03'0 0.0
2018-Jun-13 23:00N 05°32' E 000°03'0 0.1
2018-Jun-13 22:30N 05°32' E 000°03'0 0.0
2018-Jun-13 22:00N 05°32' E 000°03'0 0.0
2018-Jun-13 21:30N 05°32' E 000°03'0 0.0
2018-Jun-13 21:00N 05°32' E 000°03'0 0.0
2018-Jun-13 20:30N 05°32' E 000°03'0 0.0
2018-Jun-13 20:00N 05°32' E 000°03'0 0.0
2018-Jun-13 19:30N 05°32' E 000°03'0 0.0
2018-Jun-13 19:00N 05°32' E 000°03'0 0.0
2018-Jun-13 18:30N 05°32' E 000°03'0 0.0
2018-Jun-13 18:00N 05°32' E 000°03'0 0.0
2018-Jun-13 17:30N 05°32' E 000°03'0 0.0
2018-Jun-13 17:00N 05°32' E 000°03'0 0.0
2018-Jun-13 16:30N 05°32' E 000°03'0 0.0
2018-Jun-13 16:00N 05°32' E 000°03'0 0.0
2018-Jun-13 15:30N 05°32' E 000°03'0 0.0
2018-Jun-13 15:00N 05°32' E 000°03'0 0.0
2018-Jun-13 14:30N 05°32' E 000°03'0 0.0
2018-Jun-13 14:00N 05°32' E 000°03'0 0.0
2018-Jun-13 13:30N 05°32' E 000°03'0 0.0
2018-Jun-13 13:00N 05°32' E 000°03'0 0.0
2018-Jun-13 12:30N 05°32' E 000°03'0 0.0
2018-Jun-13 12:00N 05°32' E 000°03'0 0.0
2018-Jun-13 11:30N 05°32' E 000°03'0 0.0
2018-Jun-13 11:00N 05°32' E 000°03'0 0.0
2018-Jun-13 10:30N 05°32' E 000°03'0 0.0
2018-Jun-13 10:00N 05°32' E 000°03'0 0.0
2018-Jun-13 09:27N 05°32' E 000°03'0 0.1
2018-Jun-13 09:00N 05°32' E 000°03'0 0.1
2018-Jun-13 08:30N 05°32' E 000°03'0 0.0
2018-Jun-13 08:00N 05°32' E 000°03'0 0.0
2018-Jun-13 07:30N 05°32' E 000°03'0 0.0
2018-Jun-13 06:59N 05°32' E 000°03'0 0.1
2018-Jun-13 06:29N 05°32' E 000°03'0 0.0
2018-Jun-13 05:59N 05°32' E 000°03'0 0.0
2018-Jun-13 05:29N 05°32' E 000°03'0 0.0
2018-Jun-13 04:59N 05°32' E 000°03'0 0.0
2018-Jun-13 04:29N 05°32' E 000°03'0 0.0
2018-Jun-13 03:59N 05°32' E 000°03'0 0.0
2018-Jun-13 03:29N 05°32' E 000°03'0 0.0
2018-Jun-13 02:59N 05°32' E 000°03'0 0.0
2018-Jun-13 02:29N 05°32' E 000°03'0 0.0
2018-Jun-13 01:59N 05°32' E 000°03'0 0.0
2018-Jun-13 01:29N 05°32' E 000°03'0 0.0
2018-Jun-13 00:59N 05°32' E 000°03'0 0.1
2018-Jun-13 00:29N 05°32' E 000°03'0 0.0
2018-Jun-12 23:59N 05°32' E 000°03'0 0.0
2018-Jun-12 23:29N 05°32' E 000°03'0 0.0
2018-Jun-12 22:59N 05°32' E 000°03'0 0.0
2018-Jun-12 22:29N 05°32' E 000°03'0 0.0
2018-Jun-12 21:59N 05°32' E 000°03'0 0.0
2018-Jun-12 21:29N 05°32' E 000°03'0 0.0
2018-Jun-12 20:59N 05°32' E 000°03'0 0.0
2018-Jun-12 20:29N 05°32' E 000°03'0 0.0
2018-Jun-12 19:59N 05°32' E 000°03'0 0.0
2018-Jun-12 19:29N 05°32' E 000°03'0 0.0
2018-Jun-12 18:59N 05°32' E 000°03'0 0.0
2018-Jun-12 18:29N 05°32' E 000°03'0 0.0
2018-Jun-12 17:59N 05°32' E 000°03'0 0.0
2018-Jun-12 17:29N 05°32' E 000°03'0 0.0
2018-Jun-12 16:59N 05°32' E 000°03'0 0.0
2018-Jun-12 16:29N 05°32' E 000°03'0 0.0
2018-Jun-12 15:59N 05°32' E 000°03'0 0.0
2018-Jun-12 15:29N 05°32' E 000°03'0 0.0
2018-Jun-12 14:59N 05°32' E 000°03'0 0.0
2018-Jun-12 14:29N 05°32' E 000°03'0 0.0
2018-Jun-12 13:59N 05°32' E 000°03'0 0.0
2018-Jun-12 13:29N 05°32' E 000°03'0 0.0
2018-Jun-12 12:59N 05°32' E 000°03'0 0.0
2018-Jun-12 12:29N 05°32' E 000°03'0 0.0
2018-Jun-12 11:59N 05°32' E 000°03'0 0.0
2018-Jun-12 11:29N 05°32' E 000°03'0 0.0
2018-Jun-12 10:59N 05°32' E 000°03'0 0.0
2018-Jun-12 10:29N 05°32' E 000°03'0 0.0
2018-Jun-12 09:59N 05°32' E 000°03'0 0.0
2018-Jun-12 09:29N 05°32' E 000°03'0 0.0
2018-Jun-12 08:59N 05°32' E 000°03'0 0.1
2018-Jun-12 08:29N 05°32' E 000°03'0 0.0
2018-Jun-12 07:59N 05°32' E 000°03'0 0.0
2018-Jun-12 07:29N 05°32' E 000°03'0 0.0
2018-Jun-12 06:59N 05°32' E 000°03'0 0.0
2018-Jun-12 06:29N 05°32' E 000°03'0 0.1
2018-Jun-12 05:59N 05°32' E 000°03'0 0.0
2018-Jun-12 05:29N 05°32' E 000°03'0 0.0
2018-Jun-12 04:59N 05°32' E 000°03'0 0.0
2018-Jun-12 04:29N 05°32' E 000°03'0 0.0
2018-Jun-12 03:59N 05°32' E 000°03'0 0.1
2018-Jun-12 03:29N 05°32' E 000°03'0 0.1
2018-Jun-12 02:59N 05°32' E 000°03'0 0.0
2018-Jun-12 02:29N 05°32' E 000°03'0 0.0
2018-Jun-12 01:59N 05°32' E 000°03'0 0.0
2018-Jun-12 01:29N 05°32' E 000°03'0 0.0
2018-Jun-12 00:59N 05°32' E 000°03'0 0.0
2018-Jun-12 00:29N 05°32' E 000°03'0 0.0
2018-Jun-11 23:59N 05°32' E 000°03'0 0.0
2018-Jun-11 23:29N 05°32' E 000°03'0 0.0
2018-Jun-11 22:59N 05°32' E 000°03'0 0.0
2018-Jun-11 22:29N 05°32' E 000°03'0 0.0
2018-Jun-11 21:59N 05°32' E 000°03'0 0.0
2018-Jun-11 21:29N 05°32' E 000°03'0 0.0
2018-Jun-11 20:59N 05°32' E 000°03'0 0.0
2018-Jun-11 20:29N 05°32' E 000°03'0 0.0
2018-Jun-11 19:59N 05°32' E 000°03'0 0.0
2018-Jun-11 19:29N 05°32' E 000°03'0 0.0
2018-Jun-11 18:59N 05°32' E 000°03'0 0.0
2018-Jun-11 18:28N 05°32' E 000°03'0 0.0
2018-Jun-11 17:58N 05°32' E 000°03'0 0.0
2018-Jun-11 17:28N 05°32' E 000°03'0 0.0
2018-Jun-11 16:58N 05°32' E 000°03'0 0.0
2018-Jun-11 16:28N 05°32' E 000°03'0 0.0
2018-Jun-11 15:58N 05°32' E 000°03'0 0.0
2018-Jun-11 15:28N 05°32' E 000°03'0 0.0
2018-Jun-11 14:58N 05°32' E 000°03'0 0.1
2018-Jun-11 14:28N 05°32' E 000°03'0 0.0
2018-Jun-11 13:58N 05°32' E 000°03'0 0.0
2018-Jun-11 13:28N 05°32' E 000°03'0 0.0
2018-Jun-11 12:58N 05°32' E 000°03'0 0.0
2018-Jun-11 12:28N 05°32' E 000°03'0 0.0
2018-Jun-11 11:58N 05°32' E 000°03'0 0.0
2018-Jun-11 11:28N 05°32' E 000°03'0 0.0
2018-Jun-11 10:58N 05°32' E 000°03'0 0.0
2018-Jun-11 10:28N 05°32' E 000°03'0 0.0
2018-Jun-11 09:58N 05°32' E 000°03'0 0.0
2018-Jun-11 09:25N 05°32' E 000°03'0 0.0
2018-Jun-11 09:00N 05°32' E 000°03'0 0.0
2018-Jun-11 08:29N 05°32' E 000°03'0 0.0
2018-Jun-11 08:01N 05°32' E 000°03'0 0.2
2018-Jun-11 07:17N 05°32' E 000°03'1 3.9
2018-Jun-11 07:00N 05°32' E 000°04'510.8
2018-Jun-11 06:30N 05°31' E 000°09'611.8
2018-Jun-11 05:59N 05°29' E 000°15'612.0
2018-Jun-11 05:30N 05°26' E 000°20'612.1
2018-Jun-11 05:00N 05°23' E 000°26'  
Track history (hours):
 
Tides and Currents Weather Stations Pressure Air Temp Water Temp Dewpoint Dewpoint Depression Visibility Wind Speed Wind Dir Waves Ship Positions

Irenes Rainbow

Last reported at 2018-Jun-16 22:02 UTC. Time now 2018-Jun-24 11:17 UTC.
Position N 05°14' W 000°16'.

Length 222 m; draft 9 m.

Type: Ship (hazmat cat A). MMSI: 636014741.

Date/timePositionNaut miles runAvg speedWind from/ knotsBaromVisibWave heightAir tempDewpointWater temp
2018-Jun-16 22:02N 05°14' W 000°16'1 8.8
2018-Jun-16 21:54N 05°14' W 000°15'4 8.8
2018-Jun-16 21:29N 05°16' W 000°12'4 8.8
2018-Jun-16 21:00N 05°19' W 000°09'4 8.7
2018-Jun-16 20:30N 05°22' W 000°06'4 8.8
2018-Jun-16 20:00N 05°25' W 000°03'4 8.9
2018-Jun-16 19:30N 05°28' E 000°01'4 8.6
2018-Jun-16 19:00N 05°32' E 000°03'4 8.2
2018-Jun-16 18:29N 05°36' E 000°05'4 8.0
2018-Jun-16 18:00N 05°38' E 000°01'1 1.6
2018-Jun-16 17:28N 05°38' E 000°01'0 0.0
2018-Jun-16 16:58N 05°38' E 000°01'0 0.0
2018-Jun-16 16:28N 05°38' E 000°01'0 0.0
2018-Jun-16 15:58N 05°38' E 000°01'0 0.0
2018-Jun-16 15:28N 05°38' E 000°01'0 0.0
2018-Jun-16 14:58N 05°38' E 000°01'0 0.0
2018-Jun-16 14:28N 05°38' E 000°01'0 0.0
2018-Jun-16 13:58N 05°38' E 000°01'0 0.0
2018-Jun-16 13:28N 05°38' E 000°01'0 0.0
2018-Jun-16 12:58N 05°38' E 000°01'0 0.0
2018-Jun-16 12:28N 05°38' E 000°01'0 0.0
2018-Jun-16 11:58N 05°38' E 000°01'0 0.0
2018-Jun-16 11:28N 05°38' E 000°01'0 0.0
2018-Jun-16 10:58N 05°38' E 000°01'0 0.0
2018-Jun-16 10:28N 05°38' E 000°01'0 0.0
2018-Jun-16 09:58N 05°38' E 000°01'0 0.0
2018-Jun-16 09:28N 05°38' E 000°01'0 0.0
2018-Jun-16 08:58N 05°38' E 000°01'0 0.0
2018-Jun-16 08:28N 05°38' E 000°01'0 0.0
2018-Jun-16 07:58N 05°38' E 000°01'0 0.0
2018-Jun-16 07:28N 05°38' E 000°01'0 0.0
2018-Jun-16 06:58N 05°38' E 000°01'0 0.0
2018-Jun-16 06:28N 05°38' E 000°01'0 0.0
2018-Jun-16 05:58N 05°38' E 000°01'0 0.0
2018-Jun-16 05:28N 05°38' E 000°01'0 0.0
2018-Jun-16 04:58N 05°38' E 000°01'0 0.0
2018-Jun-16 04:28N 05°38' E 000°01'0 0.0
2018-Jun-16 03:58N 05°38' E 000°01'0 0.0
2018-Jun-16 03:28N 05°38' E 000°01'0 0.0
2018-Jun-16 02:58N 05°38' E 000°01'0 0.0
2018-Jun-16 02:28N 05°38' E 000°01'0 0.0
2018-Jun-16 01:58N 05°38' E 000°01'0 0.0
2018-Jun-16 01:28N 05°38' E 000°01'0 0.0
2018-Jun-16 00:58N 05°38' E 000°01'0 0.0
2018-Jun-16 00:28N 05°38' E 000°01'0 0.0
2018-Jun-15 23:58N 05°38' E 000°01'0 0.0
2018-Jun-15 23:28N 05°38' E 000°01'0 0.0
2018-Jun-15 22:58N 05°38' E 000°01'0 0.0
2018-Jun-15 22:28N 05°38' E 000°01'0 0.0
2018-Jun-15 22:01N 05°38' E 000°01'0 0.0
2018-Jun-15 16:36N 05°38' E 000°01'0 0.0
2018-Jun-15 16:30N 05°38' E 000°01'0 0.0
2018-Jun-15 16:00N 05°38' E 000°01'0 0.0
2018-Jun-15 15:30N 05°38' E 000°01'0 0.0
2018-Jun-15 15:00N 05°38' E 000°01'0 0.0
2018-Jun-15 14:30N 05°38' E 000°01'0 0.0
2018-Jun-15 14:00N 05°38' E 000°01'0 0.0
2018-Jun-15 13:30N 05°38' E 000°01'0 0.0
2018-Jun-15 13:00N 05°38' E 000°01'0 0.0
2018-Jun-15 12:30N 05°38' E 000°01'0 0.0
2018-Jun-15 12:00N 05°38' E 000°01'0 0.0
2018-Jun-15 11:30N 05°38' E 000°01'0 0.0
2018-Jun-15 11:00N 05°38' E 000°01'0 0.0
2018-Jun-15 10:30N 05°38' E 000°01'0 0.0
2018-Jun-15 10:00N 05°38' E 000°01'0 0.0
2018-Jun-15 09:30N 05°38' E 000°01'0 0.0
2018-Jun-15 09:00N 05°38' E 000°01'0 0.0
2018-Jun-15 08:30N 05°38' E 000°01'0 0.0
2018-Jun-15 08:00N 05°38' E 000°01'0 0.0
2018-Jun-15 07:30N 05°38' E 000°01'0 0.0
2018-Jun-15 07:00N 05°38' E 000°01'0 0.0
2018-Jun-15 06:30N 05°38' E 000°01'0 0.0
2018-Jun-15 06:00N 05°38' E 000°01'0 0.0
2018-Jun-15 05:30N 05°38' E 000°01'0 0.0
2018-Jun-15 05:00N 05°38' E 000°01'0 0.0
2018-Jun-15 04:30N 05°38' E 000°01'0 0.0
2018-Jun-15 04:00N 05°38' E 000°01'0 0.4
2018-Jun-15 03:30N 05°38' E 000°01'2 3.2
2018-Jun-15 02:59N 05°38' E 000°02'2 5.3
2018-Jun-15 02:30N 05°36' E 000°04'4 7.9
2018-Jun-15 02:00N 05°32' E 000°03'0 0.6
2018-Jun-15 01:28N 05°32' E 000°03'0 0.0
2018-Jun-15 00:58N 05°32' E 000°03'0 0.0
2018-Jun-15 00:28N 05°32' E 000°03'0 0.1
2018-Jun-14 23:58N 05°32' E 000°03'0 0.0
2018-Jun-14 23:28N 05°32' E 000°03'0 0.0
2018-Jun-14 22:58N 05°32' E 000°03'0 0.0
2018-Jun-14 22:28N 05°32' E 000°03'0 0.0
2018-Jun-14 21:58N 05°32' E 000°03'0 0.0
2018-Jun-14 21:28N 05°32' E 000°03'0 0.0
2018-Jun-14 20:58N 05°32' E 000°03'0 0.0
2018-Jun-14 20:31N 05°32' E 000°03'0 0.0
2018-Jun-14 20:01N 05°32' E 000°03'0 0.0
2018-Jun-14 19:31N 05°32' E 000°03'0 0.0
2018-Jun-14 19:00N 05°32' E 000°03'0 0.0
2018-Jun-14 18:30N 05°32' E 000°03'0 0.0
2018-Jun-14 18:00N 05°32' E 000°03'0 0.0
2018-Jun-14 17:30N 05°32' E 000°03'0 0.0
2018-Jun-14 17:00N 05°32' E 000°03'0 0.0
2018-Jun-14 16:30N 05°32' E 000°03'0 0.0
2018-Jun-14 16:00N 05°32' E 000°03'0 0.0
2018-Jun-14 15:30N 05°32' E 000°03'0 0.0
2018-Jun-14 15:00N 05°32' E 000°03'0 0.0
2018-Jun-14 14:30N 05°32' E 000°03'0 0.0
2018-Jun-14 14:00N 05°32' E 000°03'0 0.0
2018-Jun-14 13:30N 05°32' E 000°03'0 0.0
2018-Jun-14 13:00N 05°32' E 000°03'0 0.0
2018-Jun-14 12:30N 05°32' E 000°03'0 0.0
2018-Jun-14 12:00N 05°32' E 000°03'0 0.0
2018-Jun-14 11:30N 05°32' E 000°03'0 0.0
2018-Jun-14 11:00N 05°32' E 000°03'0 0.0
2018-Jun-14 10:30N 05°32' E 000°03'0 0.0
2018-Jun-14 10:00N 05°32' E 000°03'0 0.0
2018-Jun-14 09:30N 05°32' E 000°03'0 0.0
2018-Jun-14 09:00N 05°32' E 000°03'0 0.0
2018-Jun-14 08:30N 05°32' E 000°03'0 0.0
2018-Jun-14 08:00N 05°32' E 000°03'0 0.0
2018-Jun-14 07:30N 05°32' E 000°03'0 0.0
2018-Jun-14 07:00N 05°32' E 000°03'0 0.0
2018-Jun-14 06:30N 05°32' E 000°03'0 0.0
2018-Jun-14 06:00N 05°32' E 000°03'0 0.0
2018-Jun-14 05:30N 05°32' E 000°03'0 0.1
2018-Jun-14 05:00N 05°32' E 000°03'0 0.1
2018-Jun-14 04:30N 05°32' E 000°03'0 0.0
2018-Jun-14 04:00N 05°32' E 000°03'0 0.0
2018-Jun-14 03:30N 05°32' E 000°03'0 0.0
2018-Jun-14 02:57N 05°32' E 000°03'0 0.0
2018-Jun-14 02:30N 05°32' E 000°03'0 0.0
2018-Jun-14 02:00N 05°32' E 000°03'0 0.0
2018-Jun-14 01:30N 05°32' E 000°03'0 0.0
2018-Jun-14 01:00N 05°32' E 000°03'0 0.0
2018-Jun-14 00:30N 05°32' E 000°03'0 0.0
2018-Jun-14 00:00N 05°32' E 000°03'0 0.0
2018-Jun-13 23:30N 05°32' E 000°03'0 0.0
2018-Jun-13 23:00N 05°32' E 000°03'0 0.1
2018-Jun-13 22:30N 05°32' E 000°03'0 0.0
2018-Jun-13 22:00N 05°32' E 000°03'0 0.0
2018-Jun-13 21:30N 05°32' E 000°03'0 0.0
2018-Jun-13 21:00N 05°32' E 000°03'0 0.0
2018-Jun-13 20:30N 05°32' E 000°03'0 0.0
2018-Jun-13 20:00N 05°32' E 000°03'0 0.0
2018-Jun-13 19:30N 05°32' E 000°03'0 0.0
2018-Jun-13 19:00N 05°32' E 000°03'0 0.0
2018-Jun-13 18:30N 05°32' E 000°03'0 0.0
2018-Jun-13 18:00N 05°32' E 000°03'0 0.0
2018-Jun-13 17:30N 05°32' E 000°03'0 0.0
2018-Jun-13 17:00N 05°32' E 000°03'0 0.0
2018-Jun-13 16:30N 05°32' E 000°03'0 0.0
2018-Jun-13 16:00N 05°32' E 000°03'0 0.0
2018-Jun-13 15:30N 05°32' E 000°03'0 0.0
2018-Jun-13 15:00N 05°32' E 000°03'0 0.0
2018-Jun-13 14:30N 05°32' E 000°03'0 0.0
2018-Jun-13 14:00N 05°32' E 000°03'0 0.0
2018-Jun-13 13:30N 05°32' E 000°03'0 0.0
2018-Jun-13 13:00N 05°32' E 000°03'0 0.0
2018-Jun-13 12:30N 05°32' E 000°03'0 0.0
2018-Jun-13 12:00N 05°32' E 000°03'0 0.0
2018-Jun-13 11:30N 05°32' E 000°03'0 0.0
2018-Jun-13 11:00N 05°32' E 000°03'0 0.0
2018-Jun-13 10:30N 05°32' E 000°03'0 0.0
2018-Jun-13 10:00N 05°32' E 000°03'0 0.0
2018-Jun-13 09:27N 05°32' E 000°03'0 0.1
2018-Jun-13 09:00N 05°32' E 000°03'0 0.1
2018-Jun-13 08:30N 05°32' E 000°03'0 0.0
2018-Jun-13 08:00N 05°32' E 000°03'0 0.0
2018-Jun-13 07:30N 05°32' E 000°03'0 0.0
2018-Jun-13 06:59N 05°32' E 000°03'0 0.1
2018-Jun-13 06:29N 05°32' E 000°03'0 0.0
2018-Jun-13 05:59N 05°32' E 000°03'0 0.0
2018-Jun-13 05:29N 05°32' E 000°03'0 0.0
2018-Jun-13 04:59N 05°32' E 000°03'0 0.0
2018-Jun-13 04:29N 05°32' E 000°03'0 0.0
2018-Jun-13 03:59N 05°32' E 000°03'0 0.0
2018-Jun-13 03:29N 05°32' E 000°03'0 0.0
2018-Jun-13 02:59N 05°32' E 000°03'0 0.0
2018-Jun-13 02:29N 05°32' E 000°03'0 0.0
2018-Jun-13 01:59N 05°32' E 000°03'0 0.0
2018-Jun-13 01:29N 05°32' E 000°03'0 0.0
2018-Jun-13 00:59N 05°32' E 000°03'0 0.1
2018-Jun-13 00:29N 05°32' E 000°03'0 0.0
2018-Jun-12 23:59N 05°32' E 000°03'0 0.0
2018-Jun-12 23:29N 05°32' E 000°03'0 0.0
2018-Jun-12 22:59N 05°32' E 000°03'0 0.0
2018-Jun-12 22:29N 05°32' E 000°03'0 0.0
2018-Jun-12 21:59N 05°32' E 000°03'0 0.0
2018-Jun-12 21:29N 05°32' E 000°03'0 0.0
2018-Jun-12 20:59N 05°32' E 000°03'0 0.0
2018-Jun-12 20:29N 05°32' E 000°03'0 0.0
2018-Jun-12 19:59N 05°32' E 000°03'0 0.0
2018-Jun-12 19:29N 05°32' E 000°03'0 0.0
2018-Jun-12 18:59N 05°32' E 000°03'0 0.0
2018-Jun-12 18:29N 05°32' E 000°03'0 0.0
2018-Jun-12 17:59N 05°32' E 000°03'0 0.0
2018-Jun-12 17:29N 05°32' E 000°03'0 0.0
2018-Jun-12 16:59N 05°32' E 000°03'0 0.0
2018-Jun-12 16:29N 05°32' E 000°03'0 0.0
2018-Jun-12 15:59N 05°32' E 000°03'0 0.0
2018-Jun-12 15:29N 05°32' E 000°03'0 0.0
2018-Jun-12 14:59N 05°32' E 000°03'0 0.0
2018-Jun-12 14:29N 05°32' E 000°03'0 0.0
2018-Jun-12 13:59N 05°32' E 000°03'0 0.0
2018-Jun-12 13:29N 05°32' E 000°03'0 0.0
2018-Jun-12 12:59N 05°32' E 000°03'0 0.0
2018-Jun-12 12:29N 05°32' E 000°03'0 0.0
2018-Jun-12 11:59N 05°32' E 000°03'0 0.0
2018-Jun-12 11:29N 05°32' E 000°03'0 0.0
2018-Jun-12 10:59N 05°32' E 000°03'0 0.0
2018-Jun-12 10:29N 05°32' E 000°03'0 0.0
2018-Jun-12 09:59N 05°32' E 000°03'0 0.0
2018-Jun-12 09:29N 05°32' E 000°03'0 0.0
2018-Jun-12 08:59N 05°32' E 000°03'0 0.1
2018-Jun-12 08:29N 05°32' E 000°03'0 0.0
2018-Jun-12 07:59N 05°32' E 000°03'0 0.0
2018-Jun-12 07:29N 05°32' E 000°03'0 0.0
2018-Jun-12 06:59N 05°32' E 000°03'0 0.0
2018-Jun-12 06:29N 05°32' E 000°03'0 0.1
2018-Jun-12 05:59N 05°32' E 000°03'0 0.0
2018-Jun-12 05:29N 05°32' E 000°03'0 0.0
2018-Jun-12 04:59N 05°32' E 000°03'0 0.0
2018-Jun-12 04:29N 05°32' E 000°03'0 0.0
2018-Jun-12 03:59N 05°32' E 000°03'0 0.1
2018-Jun-12 03:29N 05°32' E 000°03'0 0.1
2018-Jun-12 02:59N 05°32' E 000°03'0 0.0
2018-Jun-12 02:29N 05°32' E 000°03'0 0.0
2018-Jun-12 01:59N 05°32' E 000°03'0 0.0
2018-Jun-12 01:29N 05°32' E 000°03'0 0.0
2018-Jun-12 00:59N 05°32' E 000°03'0 0.0
2018-Jun-12 00:29N 05°32' E 000°03'0 0.0
2018-Jun-11 23:59N 05°32' E 000°03'0 0.0
2018-Jun-11 23:29N 05°32' E 000°03'0 0.0
2018-Jun-11 22:59N 05°32' E 000°03'0 0.0
2018-Jun-11 22:29N 05°32' E 000°03'0 0.0
2018-Jun-11 21:59N 05°32' E 000°03'0 0.0
2018-Jun-11 21:29N 05°32' E 000°03'0 0.0
2018-Jun-11 20:59N 05°32' E 000°03'0 0.0
2018-Jun-11 20:29N 05°32' E 000°03'0 0.0
2018-Jun-11 19:59N 05°32' E 000°03'0 0.0
2018-Jun-11 19:29N 05°32' E 000°03'0 0.0
2018-Jun-11 18:59N 05°32' E 000°03'0 0.0
2018-Jun-11 18:28N 05°32' E 000°03'0 0.0
2018-Jun-11 17:58N 05°32' E 000°03'0 0.0
2018-Jun-11 17:28N 05°32' E 000°03'0 0.0
2018-Jun-11 16:58N 05°32' E 000°03'0 0.0
2018-Jun-11 16:28N 05°32' E 000°03'0 0.0
2018-Jun-11 15:58N 05°32' E 000°03'0 0.0
2018-Jun-11 15:28N 05°32' E 000°03'0 0.0
2018-Jun-11 14:58N 05°32' E 000°03'0 0.1
2018-Jun-11 14:28N 05°32' E 000°03'0 0.0
2018-Jun-11 13:58N 05°32' E 000°03'0 0.0
2018-Jun-11 13:28N 05°32' E 000°03'0 0.0
2018-Jun-11 12:58N 05°32' E 000°03'0 0.0
2018-Jun-11 12:28N 05°32' E 000°03'0 0.0
2018-Jun-11 11:58N 05°32' E 000°03'0 0.0
2018-Jun-11 11:28N 05°32' E 000°03'0 0.0
2018-Jun-11 10:58N 05°32' E 000°03'0 0.0
2018-Jun-11 10:28N 05°32' E 000°03'0 0.0
2018-Jun-11 09:58N 05°32' E 000°03'0 0.0
2018-Jun-11 09:25N 05°32' E 000°03'0 0.0
2018-Jun-11 09:00N 05°32' E 000°03'0 0.0
2018-Jun-11 08:29N 05°32' E 000°03'0 0.0
2018-Jun-11 08:01N 05°32' E 000°03'0 0.2
2018-Jun-11 07:17N 05°32' E 000°03'1 3.9
2018-Jun-11 07:00N 05°32' E 000°04'510.8
2018-Jun-11 06:30N 05°31' E 000°09'611.8
2018-Jun-11 05:59N 05°29' E 000°15'612.0
2018-Jun-11 05:30N 05°26' E 000°20'612.1
2018-Jun-11 05:00N 05°23' E 000°26'  

Dump ship's entire track history